WZZ2DM LHBP-LRTM
Flight info
| Callsign | WZZ2DM |
|---|---|
| Flight time | 0h 47m |
| Altitude | 37000 |
| Route | GAZDA DCT MAVIR DCT TIXIP DCT IBINU |
| Aircraft | A321/M-SDE1E2E3FGIJ1J4RWXY/LB1 |
Departure
| Time | 2026-05-07 19:13 |
|---|---|
| Airport | Budapest Liszt Ferenc International Airport (LHBP) |
Arrival
| Time | 2026-05-07 20:00 |
|---|---|
| Airport | Târgu Mureş Transilvania International Airport (LRTM) |
| Time | Latitude | Longitude | Altitude | Speed | Heading |
|---|---|---|---|---|---|
| 2026-05-07 18:42 | 47.43564 | 19.26392 | 456 ft | 0 kts | 222° |
| 2026-05-07 19:05 | 47.43577 | 19.26408 | 458 ft | 4 kts | 222° |
| 2026-05-07 19:05 | 47.43597 | 19.26435 | 456 ft | 4 kts | 222° |
| 2026-05-07 19:06 | 47.43617 | 19.26462 | 455 ft | 4 kts | 222° |
| 2026-05-07 19:06 | 47.43629 | 19.26479 | 453 ft | 0 kts | 222° |
| 2026-05-07 19:08 | 47.43629 | 19.26478 | 453 ft | 1 kts | 222° |
| 2026-05-07 19:09 | 47.43618 | 19.26444 | 456 ft | 5 kts | 267° |
| 2026-05-07 19:09 | 47.43645 | 19.26384 | 458 ft | 9 kts | 311° |
| 2026-05-07 19:09 | 47.43678 | 19.26288 | 458 ft | 12 kts | 276° |
| 2026-05-07 19:09 | 47.43676 | 19.26143 | 457 ft | 16 kts | 268° |
| 2026-05-07 19:10 | 47.43725 | 19.25988 | 457 ft | 18 kts | 307° |
| 2026-05-07 19:10 | 47.43685 | 19.25843 | 457 ft | 18 kts | 222° |
| 2026-05-07 19:10 | 47.43588 | 19.25713 | 457 ft | 20 kts | 223° |
| 2026-05-07 19:10 | 47.43481 | 19.25571 | 456 ft | 21 kts | 222° |
| 2026-05-07 19:11 | 47.43375 | 19.25429 | 457 ft | 20 kts | 222° |
| 2026-05-07 19:11 | 47.43271 | 19.25289 | 455 ft | 20 kts | 222° |
| 2026-05-07 19:11 | 47.43166 | 19.25149 | 457 ft | 20 kts | 222° |
| 2026-05-07 19:11 | 47.43074 | 19.25026 | 457 ft | 10 kts | 223° |
| 2026-05-07 19:12 | 47.43080 | 19.24976 | 457 ft | 4 kts | 312° |
| 2026-05-07 19:12 | 47.43117 | 19.24916 | 457 ft | 23 kts | 312° |
| 2026-05-07 19:12 | 47.43433 | 19.24405 | 452 ft | 108 kts | 312° |
| 2026-05-07 19:12 | 47.44106 | 19.23327 | 503 ft | 169 kts | 313° |
| 2026-05-07 19:13 | 47.44866 | 19.22094 | 1418 ft | 158 kts | 310° |
| 2026-05-07 19:13 | 47.45612 | 19.20825 | 2014 ft | 173 kts | 310° |
| 2026-05-07 19:13 | 47.46470 | 19.19424 | 2392 ft | 195 kts | 311° |
| 2026-05-07 19:13 | 47.47437 | 19.17862 | 2703 ft | 219 kts | 310° |
| 2026-05-07 19:14 | 47.48501 | 19.16082 | 3134 ft | 242 kts | 303° |
| 2026-05-07 19:14 | 47.49238 | 19.13771 | 3731 ft | 255 kts | 281° |
| 2026-05-07 19:14 | 47.49334 | 19.11148 | 4616 ft | 258 kts | 260° |
| 2026-05-07 19:14 | 47.48762 | 19.08647 | 5540 ft | 260 kts | 239° |
| 2026-05-07 19:15 | 47.47577 | 19.06622 | 6452 ft | 264 kts | 218° |
| 2026-05-07 19:15 | 47.45931 | 19.05383 | 7308 ft | 270 kts | 199° |
| 2026-05-07 19:15 | 47.44132 | 19.04546 | 8222 ft | 272 kts | 199° |
| 2026-05-07 19:15 | 47.42315 | 19.03701 | 9129 ft | 275 kts | 199° |
| 2026-05-07 19:16 | 47.40479 | 19.02842 | 10020 ft | 278 kts | 199° |
| 2026-05-07 19:16 | 47.38602 | 19.01922 | 10546 ft | 295 kts | 201° |
| 2026-05-07 19:16 | 47.36615 | 19.00801 | 10883 ft | 315 kts | 204° |
| 2026-05-07 19:16 | 47.34578 | 18.99508 | 11570 ft | 321 kts | 206° |
| 2026-05-07 19:17 | 47.32539 | 18.98120 | 12395 ft | 324 kts | 207° |
| 2026-05-07 19:17 | 47.30491 | 18.96712 | 13245 ft | 326 kts | 207° |
| 2026-05-07 19:17 | 47.28427 | 18.95290 | 14055 ft | 328 kts | 207° |
| 2026-05-07 19:17 | 47.26353 | 18.93865 | 14792 ft | 331 kts | 207° |
| 2026-05-07 19:18 | 47.24244 | 18.92484 | 15522 ft | 334 kts | 200° |
| 2026-05-07 19:18 | 47.21930 | 18.91936 | 16219 ft | 342 kts | 181° |
| 2026-05-07 19:18 | 47.19576 | 18.92663 | 16926 ft | 354 kts | 160° |
| 2026-05-07 19:18 | 47.17479 | 18.94626 | 17642 ft | 363 kts | 146° |
| 2026-05-07 19:19 | 47.15486 | 18.96925 | 18381 ft | 365 kts | 146° |
| 2026-05-07 19:19 | 47.13486 | 18.99247 | 19013 ft | 368 kts | 146° |
| 2026-05-07 19:19 | 47.11469 | 19.01587 | 19652 ft | 371 kts | 146° |
| 2026-05-07 19:19 | 47.09440 | 19.03935 | 20282 ft | 374 kts | 146° |
| 2026-05-07 19:20 | 47.07386 | 19.06304 | 20918 ft | 376 kts | 146° |
| 2026-05-07 19:20 | 47.05316 | 19.08681 | 21553 ft | 379 kts | 146° |
| 2026-05-07 19:20 | 47.03228 | 19.11075 | 22179 ft | 383 kts | 147° |
| 2026-05-07 19:20 | 47.01118 | 19.13488 | 22743 ft | 388 kts | 147° |
| 2026-05-07 19:21 | 46.98982 | 19.15929 | 23328 ft | 391 kts | 147° |
| 2026-05-07 19:21 | 46.96822 | 19.18391 | 23830 ft | 395 kts | 147° |
| 2026-05-07 19:21 | 46.94649 | 19.20860 | 24333 ft | 397 kts | 147° |
| 2026-05-07 19:21 | 46.92485 | 19.23316 | 24815 ft | 400 kts | 147° |
| 2026-05-07 19:22 | 46.90283 | 19.25821 | 25287 ft | 403 kts | 147° |
| 2026-05-07 19:22 | 46.88063 | 19.28346 | 25757 ft | 405 kts | 147° |
| 2026-05-07 19:22 | 46.85832 | 19.30883 | 26222 ft | 408 kts | 147° |
| 2026-05-07 19:22 | 46.83580 | 19.33442 | 26690 ft | 411 kts | 147° |
| 2026-05-07 19:23 | 46.81288 | 19.36043 | 27139 ft | 414 kts | 147° |
| 2026-05-07 19:23 | 46.79008 | 19.38626 | 27582 ft | 416 kts | 147° |
| 2026-05-07 19:23 | 46.76740 | 19.41190 | 28023 ft | 419 kts | 147° |
| 2026-05-07 19:23 | 46.74429 | 19.43802 | 28445 ft | 422 kts | 147° |
| 2026-05-07 19:24 | 46.72094 | 19.46437 | 28822 ft | 425 kts | 147° |
| 2026-05-07 19:24 | 46.69717 | 19.49112 | 29271 ft | 428 kts | 147° |
| 2026-05-07 19:24 | 46.67386 | 19.51734 | 29693 ft | 430 kts | 147° |
| 2026-05-07 19:24 | 46.65013 | 19.54400 | 30107 ft | 433 kts | 147° |
| 2026-05-07 19:25 | 46.62622 | 19.57087 | 30446 ft | 435 kts | 147° |
| 2026-05-07 19:25 | 46.60213 | 19.59790 | 30759 ft | 438 kts | 147° |
| 2026-05-07 19:25 | 46.57792 | 19.62504 | 31063 ft | 442 kts | 147° |
| 2026-05-07 19:25 | 46.55349 | 19.65241 | 31377 ft | 445 kts | 147° |
| 2026-05-07 19:26 | 46.52888 | 19.67994 | 31688 ft | 448 kts | 147° |
| 2026-05-07 19:26 | 46.50413 | 19.70766 | 32093 ft | 449 kts | 148° |
| 2026-05-07 19:26 | 46.47939 | 19.73529 | 32486 ft | 450 kts | 147° |
| 2026-05-07 19:26 | 46.45451 | 19.76298 | 32888 ft | 451 kts | 148° |
| 2026-05-07 19:27 | 46.43039 | 19.79222 | 33290 ft | 456 kts | 140° |
| 2026-05-07 19:27 | 46.40955 | 19.82742 | 33675 ft | 465 kts | 130° |
| 2026-05-07 19:27 | 46.39312 | 19.86810 | 34059 ft | 472 kts | 118° |
| 2026-05-07 19:27 | 46.38191 | 19.91310 | 34383 ft | 479 kts | 108° |
| 2026-05-07 19:28 | 46.37343 | 19.95977 | 34751 ft | 479 kts | 108° |
| 2026-05-07 19:28 | 46.36488 | 20.00643 | 34969 ft | 480 kts | 109° |
| 2026-05-07 19:28 | 46.34750 | 20.09956 | 35021 ft | 479 kts | 109° |
| 2026-05-07 19:29 | 46.32995 | 20.19243 | 35021 ft | 478 kts | 109° |
| 2026-05-07 19:29 | 46.31236 | 20.28522 | 35021 ft | 478 kts | 109° |
| 2026-05-07 19:30 | 46.29479 | 20.37805 | 35021 ft | 479 kts | 109° |
| 2026-05-07 19:30 | 46.27719 | 20.47067 | 35024 ft | 477 kts | 109° |
| 2026-05-07 19:31 | 46.25954 | 20.56286 | 35020 ft | 476 kts | 109° |
| 2026-05-07 19:31 | 46.24184 | 20.65482 | 35021 ft | 475 kts | 109° |
| 2026-05-07 19:32 | 46.22403 | 20.74687 | 35019 ft | 475 kts | 109° |
| 2026-05-07 19:32 | 46.20620 | 20.83864 | 35035 ft | 473 kts | 109° |
| 2026-05-07 19:33 | 46.18838 | 20.92985 | 35037 ft | 472 kts | 109° |
| 2026-05-07 19:33 | 46.17048 | 21.02094 | 35048 ft | 472 kts | 109° |
| 2026-05-07 19:34 | 46.15261 | 21.11195 | 35056 ft | 472 kts | 109° |
| 2026-05-07 19:34 | 46.13467 | 21.20280 | 35056 ft | 469 kts | 109° |
| 2026-05-07 19:35 | 46.11667 | 21.29308 | 35056 ft | 468 kts | 109° |
| 2026-05-07 19:35 | 46.09864 | 21.38320 | 35056 ft | 468 kts | 109° |
| 2026-05-07 19:36 | 46.08056 | 21.47322 | 35047 ft | 468 kts | 109° |
| 2026-05-07 19:36 | 46.06245 | 21.56300 | 35029 ft | 465 kts | 109° |
| 2026-05-07 19:37 | 46.04440 | 21.65215 | 35033 ft | 463 kts | 109° |
| 2026-05-07 19:37 | 46.02633 | 21.74106 | 35037 ft | 463 kts | 109° |
| 2026-05-07 19:38 | 46.01172 | 21.81504 | 35037 ft | 465 kts | 104° |
| 2026-05-07 19:38 | 46.00914 | 21.86141 | 34964 ft | 466 kts | 89° |
| 2026-05-07 19:38 | 46.01396 | 21.90745 | 33796 ft | 467 kts | 78° |
| 2026-05-07 19:39 | 46.02205 | 21.95288 | 32206 ft | 470 kts | 76° |
| 2026-05-07 19:39 | 46.03071 | 21.99726 | 31591 ft | 451 kts | 75° |
| 2026-05-07 19:39 | 46.03929 | 22.03999 | 30708 ft | 440 kts | 75° |
| 2026-05-07 19:39 | 46.04765 | 22.08194 | 29671 ft | 433 kts | 75° |
| 2026-05-07 19:40 | 46.05571 | 22.12348 | 28633 ft | 430 kts | 76° |
| 2026-05-07 19:40 | 46.06346 | 22.16481 | 27896 ft | 425 kts | 76° |
| 2026-05-07 19:40 | 46.07096 | 22.20571 | 27180 ft | 420 kts | 77° |
| 2026-05-07 19:40 | 46.07831 | 22.24622 | 26495 ft | 416 kts | 77° |
| 2026-05-07 19:41 | 46.08559 | 22.28637 | 25828 ft | 412 kts | 77° |
| 2026-05-07 19:41 | 46.09281 | 22.32611 | 25174 ft | 408 kts | 77° |
| 2026-05-07 19:41 | 46.09997 | 22.36551 | 24519 ft | 404 kts | 77° |
| 2026-05-07 19:41 | 46.10709 | 22.40446 | 23838 ft | 401 kts | 77° |
| 2026-05-07 19:42 | 46.11415 | 22.44303 | 23195 ft | 394 kts | 76° |
| 2026-05-07 19:42 | 46.12110 | 22.48094 | 22506 ft | 388 kts | 76° |
| 2026-05-07 19:42 | 46.12792 | 22.51831 | 21791 ft | 384 kts | 77° |
| 2026-05-07 19:42 | 46.13464 | 22.55530 | 21101 ft | 379 kts | 77° |
| 2026-05-07 19:43 | 46.14125 | 22.59183 | 20423 ft | 375 kts | 77° |
| 2026-05-07 19:43 | 46.14777 | 22.62798 | 19750 ft | 370 kts | 77° |
| 2026-05-07 19:43 | 46.15421 | 22.66370 | 19093 ft | 366 kts | 77° |
| 2026-05-07 19:43 | 46.16055 | 22.69901 | 18450 ft | 361 kts | 77° |
| 2026-05-07 19:44 | 46.16681 | 22.73384 | 17739 ft | 357 kts | 77° |
| 2026-05-07 19:44 | 46.17299 | 22.76837 | 17026 ft | 353 kts | 77° |
| 2026-05-07 19:44 | 46.17910 | 22.80248 | 16336 ft | 350 kts | 77° |
| 2026-05-07 19:44 | 46.18512 | 22.83627 | 15714 ft | 345 kts | 78° |
| 2026-05-07 19:45 | 46.19104 | 22.86964 | 15037 ft | 342 kts | 78° |
| 2026-05-07 19:45 | 46.19682 | 22.90232 | 14400 ft | 339 kts | 78° |
| 2026-05-07 19:45 | 46.20265 | 22.93516 | 13756 ft | 336 kts | 78° |
| 2026-05-07 19:45 | 46.20842 | 22.96774 | 13073 ft | 333 kts | 78° |
| 2026-05-07 19:46 | 46.21412 | 23.00000 | 12427 ft | 330 kts | 77° |
| 2026-05-07 19:46 | 46.21973 | 23.03182 | 11779 ft | 326 kts | 77° |
| 2026-05-07 19:46 | 46.22529 | 23.06336 | 11154 ft | 322 kts | 78° |
| 2026-05-07 19:46 | 46.23077 | 23.09461 | 10535 ft | 319 kts | 77° |
| 2026-05-07 19:47 | 46.23618 | 23.12548 | 9912 ft | 316 kts | 77° |
| 2026-05-07 19:47 | 46.24156 | 23.15608 | 9249 ft | 313 kts | 77° |
| 2026-05-07 19:47 | 46.24688 | 23.18639 | 8588 ft | 311 kts | 77° |
| 2026-05-07 19:47 | 46.25217 | 23.21652 | 7944 ft | 308 kts | 77° |
| 2026-05-07 19:48 | 46.25739 | 23.24640 | 7328 ft | 305 kts | 77° |
| 2026-05-07 19:48 | 46.26254 | 23.27604 | 6679 ft | 304 kts | 76° |
| 2026-05-07 19:48 | 46.26763 | 23.30546 | 6059 ft | 301 kts | 77° |
| 2026-05-07 19:48 | 46.27268 | 23.33468 | 5428 ft | 298 kts | 76° |
| 2026-05-07 19:49 | 46.27765 | 23.36333 | 5063 ft | 287 kts | 76° |
| 2026-05-07 19:49 | 46.28246 | 23.39117 | 4800 ft | 283 kts | 76° |
| 2026-05-07 19:49 | 46.28717 | 23.41845 | 4754 ft | 279 kts | 76° |
| 2026-05-07 19:49 | 46.29202 | 23.44665 | 5571 ft | 304 kts | 77° |
| 2026-05-07 19:50 | 46.29704 | 23.47592 | 5523 ft | 292 kts | 77° |
| 2026-05-07 19:50 | 46.30186 | 23.50386 | 5519 ft | 284 kts | 78° |
| 2026-05-07 19:50 | 46.30661 | 23.53152 | 5515 ft | 283 kts | 78° |
| 2026-05-07 19:50 | 46.31133 | 23.55912 | 5513 ft | 283 kts | 78° |
| 2026-05-07 19:51 | 46.31604 | 23.58676 | 5510 ft | 283 kts | 78° |
| 2026-05-07 19:51 | 46.32074 | 23.61437 | 5515 ft | 283 kts | 78° |
| 2026-05-07 19:51 | 46.32542 | 23.64195 | 5512 ft | 282 kts | 78° |
| 2026-05-07 19:51 | 46.33012 | 23.66957 | 5513 ft | 283 kts | 78° |
| 2026-05-07 19:52 | 46.33481 | 23.69720 | 5516 ft | 283 kts | 78° |
| 2026-05-07 19:52 | 46.33950 | 23.72481 | 5516 ft | 283 kts | 78° |
| 2026-05-07 19:52 | 46.34419 | 23.75249 | 5511 ft | 283 kts | 78° |
| 2026-05-07 19:52 | 46.34887 | 23.78016 | 5510 ft | 283 kts | 78° |
| 2026-05-07 19:53 | 46.35356 | 23.80780 | 5512 ft | 283 kts | 78° |
| 2026-05-07 19:53 | 46.35826 | 23.83546 | 5510 ft | 283 kts | 78° |
| 2026-05-07 19:53 | 46.36293 | 23.86316 | 5511 ft | 283 kts | 78° |
| 2026-05-07 19:53 | 46.36760 | 23.89093 | 5509 ft | 283 kts | 78° |
| 2026-05-07 19:54 | 46.37221 | 23.91862 | 5509 ft | 283 kts | 79° |
| 2026-05-07 19:54 | 46.37592 | 23.94658 | 5504 ft | 281 kts | 79° |
| 2026-05-07 19:54 | 46.38065 | 23.97331 | 5503 ft | 266 kts | 75° |
| 2026-05-07 19:54 | 46.38575 | 23.99823 | 5503 ft | 251 kts | 75° |
| 2026-05-07 19:55 | 46.39051 | 24.02172 | 5503 ft | 236 kts | 76° |
| 2026-05-07 19:55 | 46.39496 | 24.04399 | 5524 ft | 223 kts | 76° |
| 2026-05-07 19:55 | 46.39919 | 24.06523 | 5494 ft | 218 kts | 76° |
| 2026-05-07 19:55 | 46.40337 | 24.08629 | 5289 ft | 216 kts | 76° |
| 2026-05-07 19:56 | 46.40751 | 24.10710 | 5026 ft | 214 kts | 76° |
| 2026-05-07 19:56 | 46.41162 | 24.12784 | 4757 ft | 213 kts | 76° |
| 2026-05-07 19:56 | 46.41566 | 24.14817 | 4470 ft | 212 kts | 75° |
| 2026-05-07 19:56 | 46.41977 | 24.16895 | 4183 ft | 211 kts | 75° |
| 2026-05-07 19:57 | 46.42383 | 24.18944 | 3898 ft | 211 kts | 75° |
| 2026-05-07 19:57 | 46.42781 | 24.20955 | 3624 ft | 210 kts | 74° |
| 2026-05-07 19:57 | 46.43183 | 24.22990 | 3359 ft | 210 kts | 73° |
| 2026-05-07 19:57 | 46.43583 | 24.25015 | 3079 ft | 209 kts | 73° |
| 2026-05-07 19:58 | 46.43979 | 24.27027 | 2825 ft | 204 kts | 73° |
| 2026-05-07 19:58 | 46.44350 | 24.28913 | 2584 ft | 181 kts | 73° |
| 2026-05-07 19:58 | 46.44671 | 24.30547 | 2329 ft | 159 kts | 73° |
| 2026-05-07 19:58 | 46.44966 | 24.32046 | 2117 ft | 151 kts | 73° |
| 2026-05-07 19:59 | 46.45250 | 24.33486 | 1921 ft | 147 kts | 73° |
| 2026-05-07 19:59 | 46.45524 | 24.34897 | 1716 ft | 144 kts | 74° |
| 2026-05-07 19:59 | 46.45792 | 24.36283 | 1513 ft | 142 kts | 74° |
| 2026-05-07 19:59 | 46.46061 | 24.37654 | 1327 ft | 140 kts | 73° |
| 2026-05-07 20:00 | 46.46343 | 24.39018 | 1142 ft | 142 kts | 75° |
| 2026-05-07 20:00 | 46.46610 | 24.40402 | 964 ft | 139 kts | 75° |
| 2026-05-07 20:00 | 46.46840 | 24.41590 | 960 ft | 105 kts | 74° |
| 2026-05-07 20:00 | 46.46979 | 24.42298 | 963 ft | 27 kts | 74° |
| 2026-05-07 20:01 | 46.46988 | 24.42449 | 964 ft | 7 kts | 88° |
| 2026-05-07 20:01 | 46.47003 | 24.42465 | 960 ft | 3 kts | 326° |
| 2026-05-07 20:01 | 46.47007 | 24.42439 | 960 ft | 4 kts | 270° |
| 2026-05-07 20:01 | 46.46990 | 24.42345 | 962 ft | 15 kts | 254° |
| 2026-05-07 20:02 | 46.46957 | 24.42179 | 959 ft | 19 kts | 254° |
| 2026-05-07 20:02 | 46.46920 | 24.41988 | 959 ft | 21 kts | 254° |
| 2026-05-07 20:02 | 46.46879 | 24.41778 | 960 ft | 22 kts | 254° |
| 2026-05-07 20:02 | 46.46836 | 24.41557 | 961 ft | 24 kts | 254° |
| 2026-05-07 20:03 | 46.46787 | 24.41311 | 960 ft | 26 kts | 254° |
| 2026-05-07 20:03 | 46.46736 | 24.41052 | 960 ft | 27 kts | 254° |
| 2026-05-07 20:03 | 46.46684 | 24.40783 | 960 ft | 28 kts | 254° |
| 2026-05-07 20:03 | 46.46629 | 24.40504 | 959 ft | 29 kts | 254° |
| 2026-05-07 20:04 | 46.46574 | 24.40230 | 961 ft | 21 kts | 253° |
| 2026-05-07 20:04 | 46.46556 | 24.40139 | 963 ft | 9 kts | 254° |
| 2026-05-07 20:04 | 46.46545 | 24.40080 | 962 ft | 0 kts | 255° |
| 2026-05-07 20:04 | 46.46545 | 24.40078 | 962 ft | 0 kts | 255° |
| 2026-05-07 20:05 | 46.46544 | 24.40070 | 960 ft | 2 kts | 266° |
| 2026-05-07 20:05 | 46.46544 | 24.40065 | 961 ft | 0 kts | 267° |
| 2026-05-07 20:05 | 46.46544 | 24.40058 | 961 ft | 2 kts | 267° |
| 2026-05-07 20:06 | 46.46536 | 24.40042 | 962 ft | 1 kts | 196° |
| 2026-05-07 20:06 | 46.46533 | 24.40050 | 959 ft | 1 kts | 135° |
| 2026-05-07 20:06 | 46.46537 | 24.40070 | 961 ft | 4 kts | 68° |
| 2026-05-07 20:06 | 46.46549 | 24.40115 | 963 ft | 0 kts | 68° |
| 2026-05-07 20:07 | 46.46550 | 24.40117 | 964 ft | 1 kts | 68° |
| 2026-05-07 20:07 | 46.46556 | 24.40139 | 963 ft | 4 kts | 68° |
| 2026-05-07 20:07 | 46.46569 | 24.40191 | 964 ft | 7 kts | 72° |
| 2026-05-07 20:07 | 46.46587 | 24.40274 | 962 ft | 10 kts | 72° |
| 2026-05-07 20:08 | 46.46610 | 24.40385 | 961 ft | 13 kts | 73° |
| 2026-05-07 20:08 | 46.46638 | 24.40523 | 961 ft | 16 kts | 73° |
| 2026-05-07 20:08 | 46.46669 | 24.40700 | 958 ft | 20 kts | 77° |
| 2026-05-07 20:08 | 46.46706 | 24.40900 | 961 ft | 21 kts | 75° |
| 2026-05-07 20:09 | 46.46748 | 24.41119 | 960 ft | 24 kts | 74° |
| 2026-05-07 20:09 | 46.46795 | 24.41354 | 957 ft | 25 kts | 74° |
| 2026-05-07 20:09 | 46.46839 | 24.41573 | 961 ft | 23 kts | 74° |
| 2026-05-07 20:10 | 46.46929 | 24.42035 | 961 ft | 20 kts | 74° |
| 2026-05-07 20:10 | 46.46956 | 24.42196 | 961 ft | 14 kts | 95° |
| 2026-05-07 20:10 | 46.46883 | 24.42262 | 960 ft | 14 kts | 165° |
| 2026-05-07 20:10 | 46.46801 | 24.42262 | 963 ft | 7 kts | 232° |
| 2026-05-07 20:11 | 46.46798 | 24.42227 | 963 ft | 0 kts | 259° |